METAR Formatted Surface Weather Observation
Issued by NWS

Home | Current Version | Previous Version | Text Only | Print | Product List | Glossary On
Versions: 1 2 3 4 5 6 7 8 9 10 11 12 13 14 15 16 17 18 19 20 21 22 23 24 25 26 27 28 29 30 31 32 33 34 35
000
SAUS41 KRLX 061330
MTRCKB
SPECI KCKB 061329Z 00000KT 10SM CLR M17/M17 A3052 RMK AO2
UPB05E10FZRAB10E23 P0000 I1000 T11671172



USA.gov is the U.S. government's official web portal to all federal, state and local government web resources and services.